createdAt,value
2018-12-15T00:00:57.331Z,0.70
2018-12-15T00:03:26.144Z,0.70
2018-12-15T00:05:54.791Z,0.70
2018-12-15T00:08:23.519Z,0.80
2018-12-15T00:10:52.231Z,0.70
2018-12-15T00:13:21.012Z,0.70
2018-12-15T00:15:49.796Z,0.70
2018-12-15T00:18:18.457Z,0.70
2018-12-15T00:20:47.111Z,0.60
2018-12-15T00:23:15.832Z,0.70
2018-12-15T00:25:44.649Z,0.60
2018-12-15T00:28:13.356Z,0.60
2018-12-15T00:30:42.039Z,0.60
2018-12-15T00:33:10.780Z,0.60
2018-12-15T00:35:39.613Z,0.60
2018-12-15T00:38:08.343Z,0.60
2018-12-15T00:40:37.042Z,0.60
2018-12-15T00:43:05.677Z,0.70
2018-12-15T00:45:34.408Z,0.60
2018-12-15T00:48:03.166Z,0.60
2018-12-15T00:50:31.874Z,0.60
2018-12-15T00:53:00.579Z,0.60
2018-12-15T00:55:29.287Z,0.60
2018-12-15T00:57:57.935Z,0.60
2018-12-15T01:00:27.412Z,0.60
2018-12-15T01:02:56.189Z,0.60
2018-12-15T01:05:24.986Z,0.60
2018-12-15T01:07:53.759Z,0.60
2018-12-15T01:10:22.527Z,0.60
2018-12-15T01:12:51.223Z,0.60
2018-12-15T01:15:24.239Z,0.60
2018-12-15T01:17:52.945Z,0.60
2018-12-15T01:20:21.752Z,0.60
2018-12-15T01:22:50.610Z,0.60
2018-12-15T01:25:19.299Z,0.60
2018-12-15T01:27:48.085Z,0.60
2018-12-15T01:30:16.742Z,0.70
2018-12-15T01:32:45.464Z,0.70
2018-12-15T01:35:14.134Z,0.60
2018-12-15T01:37:42.910Z,0.60
2018-12-15T01:40:11.687Z,0.70
2018-12-15T01:42:40.563Z,0.70
2018-12-15T01:45:09.352Z,0.70
2018-12-15T01:47:38.049Z,0.70
2018-12-15T01:50:06.800Z,0.70
2018-12-15T01:52:35.515Z,0.70
2018-12-15T01:55:04.367Z,0.70
2018-12-15T01:57:33.157Z,0.70
2018-12-15T02:00:01.970Z,0.60
2018-12-15T02:02:30.675Z,0.60
2018-12-15T02:04:59.433Z,0.60
2018-12-15T02:07:28.248Z,0.70
2018-12-15T02:09:57.211Z,0.60
2018-12-15T02:12:25.939Z,0.60
2018-12-15T02:14:54.723Z,0.60
2018-12-15T02:17:23.503Z,0.70
2018-12-15T02:19:52.488Z,0.70
2018-12-15T02:22:21.251Z,0.60
2018-12-15T02:24:50.069Z,0.70
2018-12-15T02:27:18.778Z,0.60
2018-12-15T02:29:47.490Z,0.70
2018-12-15T02:32:16.167Z,0.70
2018-12-15T02:34:44.804Z,0.70
2018-12-15T02:37:13.535Z,0.70
2018-12-15T02:39:42.349Z,0.80
2018-12-15T02:42:11.065Z,0.70
2018-12-15T02:44:39.702Z,0.70
2018-12-15T02:47:08.442Z,0.70
2018-12-15T02:49:37.146Z,0.70
2018-12-15T02:52:05.826Z,0.70
2018-12-15T02:54:34.512Z,0.70
2018-12-15T02:57:03.402Z,0.70
2018-12-15T02:59:32.124Z,0.70
2018-12-15T03:02:00.838Z,0.70
2018-12-15T03:04:29.555Z,0.70
2018-12-15T03:06:58.207Z,0.70
2018-12-15T03:09:27.193Z,0.70
2018-12-15T03:11:55.885Z,0.70
2018-12-15T03:14:24.586Z,0.70
2018-12-15T03:17:02.694Z,0.70
2018-12-15T03:19:31.406Z,0.70
2018-12-15T03:22:00.170Z,0.80
2018-12-15T03:24:29.280Z,0.80
2018-12-15T03:26:58.020Z,0.80
2018-12-15T03:29:26.857Z,0.80
2018-12-15T03:31:55.553Z,0.80
2018-12-15T03:34:24.196Z,0.80
2018-12-15T03:36:52.898Z,0.80
2018-12-15T03:39:22.236Z,0.80
2018-12-15T03:41:51.039Z,0.80
2018-12-15T03:44:19.788Z,0.80
2018-12-15T03:46:48.556Z,0.80
2018-12-15T03:49:17.227Z,0.80
2018-12-15T03:51:45.891Z,0.80
2018-12-15T03:54:14.570Z,0.80
2018-12-15T03:56:43.338Z,0.80
2018-12-15T03:59:12.044Z,0.80
2018-12-15T04:01:40.805Z,0.80
2018-12-15T04:04:09.514Z,0.80
2018-12-15T04:06:38.455Z,0.80
2018-12-15T04:09:07.233Z,0.80
2018-12-15T04:11:35.999Z,0.80
2018-12-15T04:14:04.805Z,0.80
2018-12-15T04:16:33.582Z,0.80
2018-12-15T04:19:02.393Z,0.80
2018-12-15T04:21:31.112Z,0.80
2018-12-15T04:23:59.779Z,0.80
2018-12-15T04:26:28.484Z,0.80
2018-12-15T04:28:57.133Z,0.80
2018-12-15T04:31:25.882Z,0.80
2018-12-15T04:33:54.606Z,0.80
2018-12-15T04:36:23.433Z,0.70
2018-12-15T04:38:52.317Z,0.70
2018-12-15T04:41:21.022Z,0.80
2018-12-15T04:43:50.018Z,0.80
2018-12-15T04:46:18.855Z,0.70
2018-12-15T04:48:47.566Z,0.70
2018-12-15T04:51:16.216Z,0.70
2018-12-15T04:53:44.990Z,0.70
2018-12-15T04:56:13.683Z,0.70
2018-12-15T04:58:42.396Z,0.70
2018-12-15T05:01:11.100Z,0.70
2018-12-15T05:03:39.886Z,0.70
2018-12-15T05:06:08.672Z,0.70
2018-12-15T05:08:37.303Z,0.80
2018-12-15T05:11:06.020Z,0.70
2018-12-15T05:13:34.708Z,0.70
2018-12-15T05:16:03.511Z,0.70
2018-12-15T05:18:32.281Z,0.70
2018-12-15T05:21:00.969Z,0.70
2018-12-15T05:23:29.679Z,0.60
2018-12-15T05:25:58.327Z,0.70
2018-12-15T05:28:27.035Z,0.70
2018-12-15T05:30:55.877Z,0.70
2018-12-15T05:33:24.617Z,0.60
2018-12-15T05:35:53.282Z,0.60
2018-12-15T05:38:21.939Z,0.70
2018-12-15T05:40:50.721Z,0.70
2018-12-15T05:43:19.513Z,0.70
2018-12-15T05:45:48.225Z,0.60
2018-12-15T05:48:16.946Z,0.70
2018-12-15T05:50:45.656Z,0.70
2018-12-15T05:53:14.362Z,0.70
2018-12-15T05:55:43.170Z,0.70
2018-12-15T05:58:11.898Z,0.70
2018-12-15T06:00:40.687Z,0.70
2018-12-15T06:03:09.384Z,0.70
2018-12-15T06:05:38.362Z,0.70
2018-12-15T06:08:07.184Z,0.70
2018-12-15T06:10:36.058Z,0.70
2018-12-15T06:13:04.781Z,0.70
2018-12-15T06:15:33.498Z,0.70
2018-12-15T06:18:02.312Z,0.70
2018-12-15T06:20:31.107Z,0.60
2018-12-15T06:22:59.785Z,0.70
2018-12-15T06:25:28.450Z,0.70
2018-12-15T06:27:57.173Z,0.70
2018-12-15T06:30:25.943Z,0.70
2018-12-15T06:32:54.776Z,0.70
2018-12-15T06:35:23.506Z,0.70
2018-12-15T06:37:52.161Z,0.70
2018-12-15T06:40:20.935Z,0.70
2018-12-15T06:42:49.668Z,0.70
2018-12-15T06:45:18.423Z,0.70
2018-12-15T06:47:47.077Z,0.70
2018-12-15T06:50:15.811Z,0.80
2018-12-15T06:52:44.556Z,0.70
2018-12-15T06:55:13.349Z,0.70
2018-12-15T06:57:42.019Z,0.70
2018-12-15T07:00:10.871Z,0.70
2018-12-15T07:02:39.555Z,0.70
2018-12-15T07:05:08.336Z,0.70
2018-12-15T07:07:37.287Z,0.70
2018-12-15T07:10:06.084Z,0.70
2018-12-15T07:12:34.746Z,0.70
2018-12-15T07:15:03.638Z,0.70
2018-12-15T07:17:32.389Z,0.70
2018-12-15T07:20:01.135Z,0.80
2018-12-15T07:22:29.900Z,0.80
2018-12-15T07:24:58.758Z,0.80
2018-12-15T07:27:27.463Z,0.70
2018-12-15T07:29:56.191Z,0.80
2018-12-15T07:32:24.857Z,0.80
2018-12-15T07:34:53.603Z,0.70
2018-12-15T07:37:22.380Z,0.70
2018-12-15T07:39:51.041Z,0.70
2018-12-15T07:42:19.789Z,0.60
2018-12-15T07:44:48.571Z,0.60
2018-12-15T07:47:17.361Z,0.70
2018-12-15T07:49:46.025Z,0.70
2018-12-15T07:52:14.679Z,0.70
2018-12-15T07:54:43.418Z,0.70
2018-12-15T07:57:12.118Z,0.70
2018-12-15T07:59:40.910Z,0.70
2018-12-15T08:02:09.675Z,0.70
2018-12-15T08:04:38.402Z,0.80
2018-12-15T08:07:07.166Z,0.70
2018-12-15T08:09:36.044Z,0.80
2018-12-15T08:12:10.182Z,0.70
2018-12-15T08:14:38.842Z,0.80
2018-12-15T08:17:07.758Z,0.80
2018-12-15T08:19:36.526Z,0.80
2018-12-15T08:22:05.445Z,0.80
2018-12-15T08:24:34.212Z,0.80
2018-12-15T08:27:03.026Z,0.90
2018-12-15T08:29:31.726Z,0.80
2018-12-15T08:32:00.567Z,0.90
2018-12-15T08:34:29.374Z,0.90
2018-12-15T08:36:58.162Z,0.90
2018-12-15T08:39:26.870Z,0.90
2018-12-15T08:41:55.748Z,0.90
2018-12-15T08:44:24.622Z,0.90
2018-12-15T08:46:53.288Z,0.90
2018-12-15T08:49:22.018Z,0.90
2018-12-15T08:51:50.672Z,0.90
2018-12-15T08:54:19.387Z,0.90
2018-12-15T08:56:48.242Z,0.90
2018-12-15T08:59:17.018Z,0.90
2018-12-15T09:01:45.827Z,0.90
2018-12-15T09:04:14.585Z,0.90
2018-12-15T09:06:43.292Z,1.00
2018-12-15T09:09:11.956Z,1.00
2018-12-15T09:11:40.752Z,0.90
2018-12-15T09:14:09.434Z,0.90
2018-12-15T09:16:38.236Z,0.90
2018-12-15T09:19:11.300Z,0.80
2018-12-15T09:21:37.674Z,0.90
2018-12-15T09:24:06.558Z,0.90
2018-12-15T09:26:35.367Z,0.90
2018-12-15T09:29:04.167Z,0.90
2018-12-15T09:31:32.970Z,0.90
2018-12-15T09:34:01.716Z,1.00
2018-12-15T09:36:30.562Z,1.00
2018-12-15T09:38:59.343Z,1.00
2018-12-15T09:41:28.062Z,1.00
2018-12-15T09:43:56.810Z,1.00
2018-12-15T09:46:25.669Z,1.00
2018-12-15T09:48:54.403Z,1.00
2018-12-15T09:51:23.086Z,1.00
2018-12-15T09:53:51.831Z,1.10
2018-12-15T09:56:20.602Z,1.00
2018-12-15T09:58:49.543Z,1.00
2018-12-15T10:01:18.888Z,1.00
2018-12-15T10:03:47.714Z,1.00
2018-12-15T10:06:16.425Z,1.00
2018-12-15T10:08:45.327Z,1.00
2018-12-15T10:11:14.094Z,1.00
2018-12-15T10:13:42.821Z,0.90
2018-12-15T10:16:11.684Z,1.00
2018-12-15T10:18:40.398Z,1.00
2018-12-15T10:21:09.161Z,1.10
2018-12-15T10:23:37.964Z,1.10
2018-12-15T10:26:06.741Z,1.10
2018-12-15T10:28:35.521Z,1.10
2018-12-15T10:31:09.755Z,1.10
2018-12-15T10:33:38.567Z,1.10
2018-12-15T10:36:07.418Z,1.00
2018-12-15T10:38:36.156Z,1.10
2018-12-15T10:41:05.100Z,1.00
2018-12-15T10:43:33.777Z,0.90
2018-12-15T10:46:02.546Z,0.90
2018-12-15T10:48:31.317Z,1.00
2018-12-15T10:51:00.129Z,1.00
2018-12-15T10:53:29.243Z,0.90
2018-12-15T10:55:57.890Z,0.90
2018-12-15T10:58:26.611Z,1.00
2018-12-15T11:00:59.132Z,1.10
2018-12-15T11:03:27.887Z,1.10
2018-12-15T11:05:56.650Z,1.00
2018-12-15T11:08:25.515Z,1.00
2018-12-15T11:10:54.290Z,1.10
2018-12-15T11:13:23.030Z,1.00
2018-12-15T11:15:51.752Z,1.10
2018-12-15T11:18:20.702Z,1.00
2018-12-15T11:20:49.424Z,1.10
2018-12-15T11:23:18.180Z,1.10
2018-12-15T11:25:46.926Z,1.10
2018-12-15T11:28:15.759Z,1.10
2018-12-15T11:30:44.415Z,1.10
2018-12-15T11:33:13.214Z,1.10
2018-12-15T11:35:41.939Z,1.10
2018-12-15T11:38:10.752Z,1.10
2018-12-15T11:40:39.446Z,1.10
2018-12-15T11:43:08.216Z,1.10
2018-12-15T11:45:37.003Z,1.10
2018-12-15T11:48:05.826Z,1.20
2018-12-15T11:50:34.689Z,1.20
2018-12-15T11:53:03.523Z,1.20
2018-12-15T11:55:32.295Z,1.20
2018-12-15T11:58:00.964Z,1.10
2018-12-15T12:00:29.895Z,1.20
2018-12-15T12:02:58.625Z,1.20
2018-12-15T12:05:27.444Z,1.20
2018-12-15T12:07:56.180Z,1.20
2018-12-15T12:10:24.918Z,1.20
2018-12-15T12:12:53.708Z,1.20
2018-12-15T12:15:22.510Z,1.20
2018-12-15T12:17:51.261Z,1.20
2018-12-15T12:20:20.128Z,1.30
2018-12-15T12:22:48.994Z,1.30
2018-12-15T12:25:17.744Z,1.30
2018-12-15T12:27:46.598Z,1.30
2018-12-15T12:30:15.364Z,1.30
2018-12-15T12:32:44.082Z,1.30
2018-12-15T12:35:12.900Z,1.30
2018-12-15T12:37:41.710Z,1.30
2018-12-15T12:40:10.434Z,1.20
2018-12-15T12:42:39.122Z,1.20
2018-12-15T12:45:07.936Z,1.20
2018-12-15T12:47:36.656Z,1.30
2018-12-15T12:50:06.100Z,1.30
2018-12-15T12:52:34.911Z,1.30
2018-12-15T12:55:03.987Z,1.30
2018-12-15T12:57:32.779Z,1.40
2018-12-15T13:00:01.491Z,1.40
2018-12-15T13:02:30.329Z,1.40
2018-12-15T13:04:59.064Z,1.40
2018-12-15T13:07:27.870Z,1.30
2018-12-15T13:09:56.692Z,1.40
2018-12-15T13:12:25.400Z,1.30
2018-12-15T13:14:54.193Z,1.30
2018-12-15T13:17:22.977Z,1.30
2018-12-15T13:19:51.684Z,1.30
2018-12-15T13:22:20.397Z,1.30
2018-12-15T13:24:49.237Z,1.30
2018-12-15T13:27:18.085Z,1.40
2018-12-15T13:29:47.112Z,1.40
2018-12-15T13:32:15.925Z,1.30
2018-12-15T13:34:44.868Z,1.40
2018-12-15T13:37:13.637Z,1.40
2018-12-15T13:39:42.321Z,1.40
2018-12-15T13:42:11.209Z,1.30
2018-12-15T13:44:40.009Z,1.30
2018-12-15T13:47:08.809Z,1.20
2018-12-15T13:49:37.606Z,1.30
2018-12-15T13:52:06.431Z,1.30
2018-12-15T13:54:35.212Z,1.30
2018-12-15T13:57:03.996Z,1.40
2018-12-15T13:59:32.764Z,1.30
2018-12-15T14:02:01.623Z,1.40
2018-12-15T14:04:30.392Z,1.40
2018-12-15T14:06:59.290Z,1.30
2018-12-15T14:09:27.990Z,1.30
2018-12-15T14:11:56.634Z,1.30
2018-12-15T14:14:25.386Z,1.30
2018-12-15T14:16:54.314Z,1.30
2018-12-15T14:19:23.156Z,1.40
2018-12-15T14:21:51.844Z,1.40
2018-12-15T14:24:20.526Z,1.40
2018-12-15T14:26:49.420Z,1.40
2018-12-15T14:29:18.131Z,1.40
2018-12-15T14:31:46.816Z,1.40
2018-12-15T14:34:15.598Z,1.40
2018-12-15T14:36:44.394Z,1.40
2018-12-15T14:39:13.172Z,1.40
2018-12-15T14:41:41.870Z,1.30
2018-12-15T14:44:10.702Z,1.30
2018-12-15T14:46:39.413Z,1.30
2018-12-15T14:49:08.190Z,1.30
2018-12-15T14:51:37.005Z,1.30
2018-12-15T14:54:05.798Z,1.30
2018-12-15T14:56:34.587Z,1.40
2018-12-15T14:59:03.406Z,1.30
2018-12-15T15:01:32.185Z,1.40
2018-12-15T15:04:00.890Z,1.30
2018-12-15T15:06:29.785Z,1.30
2018-12-15T15:08:58.817Z,1.30
2018-12-15T15:11:27.549Z,1.30
2018-12-15T15:13:56.313Z,1.30
2018-12-15T15:16:25.079Z,1.30
2018-12-15T15:18:53.953Z,1.30
2018-12-15T15:21:22.665Z,1.30
2018-12-15T15:23:51.453Z,1.30
2018-12-15T15:26:20.169Z,1.30
2018-12-15T15:28:48.887Z,1.30
2018-12-15T15:31:17.695Z,1.30
2018-12-15T15:33:46.516Z,1.30
2018-12-15T15:36:15.347Z,1.30
2018-12-15T15:38:44.174Z,1.30
2018-12-15T15:41:12.954Z,1.20
2018-12-15T15:43:41.714Z,1.20
2018-12-15T15:46:10.407Z,1.20
2018-12-15T15:48:39.181Z,1.30
2018-12-15T15:51:07.970Z,1.20
2018-12-15T15:53:36.897Z,1.20
2018-12-15T15:56:05.674Z,1.30
2018-12-15T15:58:34.458Z,1.30
2018-12-15T16:01:03.447Z,1.30
2018-12-15T16:03:32.299Z,1.30
2018-12-15T16:06:01.072Z,1.30
2018-12-15T16:08:29.761Z,1.30
2018-12-15T16:10:58.402Z,1.20
2018-12-15T16:13:27.247Z,1.20
2018-12-15T16:15:56.054Z,1.30
2018-12-15T16:18:24.743Z,1.30
2018-12-15T16:20:53.569Z,1.20
2018-12-15T16:23:22.494Z,1.20
2018-12-15T16:25:51.277Z,1.20
2018-12-15T16:28:20.080Z,1.20
2018-12-15T16:30:48.895Z,1.20
2018-12-15T16:33:17.616Z,1.30
2018-12-15T16:35:46.388Z,1.30
2018-12-15T16:38:15.204Z,1.30
2018-12-15T16:40:50.066Z,1.30
2018-12-15T16:43:18.878Z,1.30
2018-12-15T16:45:47.602Z,1.30
2018-12-15T16:48:16.334Z,1.30
2018-12-15T16:50:49.925Z,1.30
2018-12-15T16:53:15.941Z,1.30
2018-12-15T16:55:44.659Z,1.30
2018-12-15T16:58:13.428Z,1.30
2018-12-15T17:00:42.155Z,1.30
2018-12-15T17:03:10.842Z,1.30
2018-12-15T17:05:39.587Z,1.20
2018-12-15T17:08:08.333Z,1.20
2018-12-15T17:10:37.001Z,1.20
2018-12-15T17:13:05.797Z,1.20
2018-12-15T17:15:34.523Z,1.20
2018-12-15T17:18:03.407Z,1.30
2018-12-15T17:20:32.265Z,1.30
2018-12-15T17:23:00.996Z,1.30
2018-12-15T17:25:29.772Z,1.30
2018-12-15T17:27:58.669Z,1.30
2018-12-15T17:30:27.398Z,1.30
2018-12-15T17:32:56.262Z,1.30
2018-12-15T17:35:25.107Z,1.30
2018-12-15T17:37:53.987Z,1.30
2018-12-15T17:40:22.721Z,1.30
2018-12-15T17:42:51.519Z,1.30
2018-12-15T17:45:20.265Z,1.20
2018-12-15T17:47:48.960Z,1.20
2018-12-15T17:50:17.778Z,1.20
2018-12-15T17:52:46.576Z,1.20
2018-12-15T17:55:15.405Z,1.30
2018-12-15T17:57:44.222Z,1.20
2018-12-15T18:00:13.800Z,1.20
2018-12-15T18:02:43.846Z,1.20
2018-12-15T18:05:12.908Z,1.10
2018-12-15T18:07:41.686Z,1.20
2018-12-15T18:10:10.494Z,1.20
2018-12-15T18:12:39.228Z,1.10
2018-12-15T18:15:08.233Z,1.10
2018-12-15T18:17:36.988Z,1.20
2018-12-15T18:20:07.172Z,1.20
2018-12-15T18:22:35.915Z,1.20
2018-12-15T18:25:05.233Z,1.20
2018-12-15T18:27:33.928Z,1.10
2018-12-15T18:30:02.878Z,1.20
2018-12-15T18:32:31.658Z,1.20
2018-12-15T18:35:00.655Z,1.20
2018-12-15T18:37:29.631Z,1.20
2018-12-15T18:39:58.565Z,1.20
2018-12-15T18:42:27.626Z,1.20
2018-12-15T18:44:56.628Z,1.20
2018-12-15T18:47:25.629Z,1.10
2018-12-15T18:49:54.556Z,1.20
2018-12-15T18:52:23.477Z,1.20
2018-12-15T18:54:52.291Z,1.10
2018-12-15T18:57:21.082Z,1.20
2018-12-15T18:59:50.065Z,1.10
2018-12-15T19:02:18.953Z,1.10
2018-12-15T19:04:47.705Z,1.10
2018-12-15T19:07:16.524Z,1.10
2018-12-15T19:09:45.285Z,1.20
2018-12-15T19:12:14.107Z,1.10
2018-12-15T19:14:42.848Z,1.00
2018-12-15T19:17:11.659Z,1.10
2018-12-15T19:19:40.355Z,1.00
2018-12-15T19:22:09.105Z,1.10
2018-12-15T19:24:37.916Z,1.10
2018-12-15T19:27:06.782Z,1.10
2018-12-15T19:29:36.252Z,1.10
2018-12-15T19:32:05.108Z,1.00
2018-12-15T19:34:33.952Z,1.10
2018-12-15T19:37:02.644Z,1.10
2018-12-15T19:39:31.480Z,1.10
2018-12-15T19:42:00.337Z,1.10
2018-12-15T19:44:29.116Z,1.00
2018-12-15T19:46:57.785Z,1.10
2018-12-15T19:49:26.464Z,1.10
2018-12-15T19:51:55.212Z,1.10
2018-12-15T19:54:23.960Z,0.90
2018-12-15T19:56:52.694Z,1.00
2018-12-15T19:59:21.388Z,1.00
2018-12-15T20:01:50.212Z,1.00
2018-12-15T20:04:19.166Z,1.10
2018-12-15T20:06:47.954Z,1.10
2018-12-15T20:09:16.752Z,1.10
2018-12-15T20:11:45.524Z,1.10
2018-12-15T20:14:14.230Z,1.00
2018-12-15T20:16:42.908Z,1.10
2018-12-15T20:19:11.673Z,1.00
2018-12-15T20:21:40.406Z,1.10
2018-12-15T20:24:09.280Z,1.10
2018-12-15T20:26:38.025Z,1.10
2018-12-15T20:29:07.026Z,1.10
2018-12-15T20:31:35.780Z,1.00
2018-12-15T20:34:04.515Z,1.00
2018-12-15T20:36:33.245Z,1.00
2018-12-15T20:39:02.010Z,1.00
2018-12-15T20:41:30.841Z,1.00
2018-12-15T20:43:59.637Z,1.00
2018-12-15T20:46:28.433Z,1.00
2018-12-15T20:48:57.244Z,1.00
2018-12-15T20:51:25.911Z,1.10
2018-12-15T20:53:54.636Z,1.00
2018-12-15T20:56:23.296Z,1.10
2018-12-15T20:58:52.106Z,1.00
2018-12-15T21:01:21.098Z,0.90
2018-12-15T21:03:49.897Z,0.90
2018-12-15T21:06:18.633Z,0.90
2018-12-15T21:08:47.412Z,1.00
2018-12-15T21:11:16.072Z,1.00
2018-12-15T21:13:44.978Z,1.00
2018-12-15T21:16:13.698Z,0.90
2018-12-15T21:18:42.468Z,0.90
2018-12-15T21:21:11.306Z,0.90
2018-12-15T21:23:40.072Z,0.90
2018-12-15T21:26:08.860Z,1.00
2018-12-15T21:28:38.539Z,1.00
2018-12-15T21:31:07.268Z,1.00
2018-12-15T21:33:36.228Z,1.00
2018-12-15T21:36:05.032Z,1.00
2018-12-15T21:38:33.772Z,1.00
2018-12-15T21:41:02.587Z,1.00
2018-12-15T21:43:31.273Z,1.00
2018-12-15T21:45:59.981Z,1.00
2018-12-15T21:48:28.789Z,1.00
2018-12-15T21:50:57.540Z,1.00
2018-12-15T21:53:26.295Z,1.00
2018-12-15T21:55:54.961Z,1.00
2018-12-15T21:58:23.677Z,0.90
2018-12-15T22:00:52.443Z,0.90
2018-12-15T22:03:21.171Z,0.80
2018-12-15T22:05:49.921Z,0.90
2018-12-15T22:08:18.695Z,0.80
2018-12-15T22:10:47.451Z,0.80
2018-12-15T22:13:16.258Z,0.80
2018-12-15T22:15:45.070Z,0.80
2018-12-15T22:18:13.802Z,0.90
2018-12-15T22:20:42.974Z,0.90
2018-12-15T22:23:11.701Z,0.90
2018-12-15T22:25:40.476Z,0.90
2018-12-15T22:28:09.187Z,0.90
2018-12-15T22:30:37.987Z,0.90
2018-12-15T22:33:06.717Z,0.90
2018-12-15T22:35:35.462Z,0.80
2018-12-15T22:38:04.288Z,0.90
2018-12-15T22:40:33.087Z,0.90
2018-12-15T22:43:01.810Z,0.90
2018-12-15T22:45:30.542Z,0.90
2018-12-15T22:47:59.269Z,0.80
2018-12-15T22:50:28.055Z,0.80
2018-12-15T22:52:56.719Z,0.90
2018-12-15T22:55:25.471Z,0.80
2018-12-15T22:57:54.161Z,0.90
2018-12-15T23:00:23.067Z,0.80
2018-12-15T23:02:52.011Z,0.80
2018-12-15T23:05:20.869Z,0.80
2018-12-15T23:07:49.523Z,0.80
2018-12-15T23:10:18.341Z,0.80
2018-12-15T23:12:46.999Z,0.80
2018-12-15T23:15:15.833Z,0.80
2018-12-15T23:17:44.623Z,0.80
2018-12-15T23:20:13.420Z,0.80
2018-12-15T23:22:42.189Z,0.90
2018-12-15T23:25:10.956Z,0.90
2018-12-15T23:27:39.754Z,0.80
2018-12-15T23:30:08.671Z,0.90
2018-12-15T23:32:37.447Z,0.90
2018-12-15T23:35:06.359Z,0.80
2018-12-15T23:37:35.120Z,0.90
2018-12-15T23:40:04.130Z,0.90
2018-12-15T23:42:32.880Z,0.90
2018-12-15T23:45:01.607Z,0.90
2018-12-15T23:47:30.300Z,0.80
2018-12-15T23:49:59.009Z,0.80
2018-12-15T23:52:27.730Z,0.80
2018-12-15T23:54:56.396Z,0.80
2018-12-15T23:57:25.174Z,0.80
2018-12-15T23:59:54.071Z,0.80
